sensor_id;sensor_type;location;lat;lon;timestamp;pressure;altitude;pressure_sealevel;temperature;humidity
62725;BME280;49026;52.600;4.694;2023-02-12T00:01:42;103869.31;;;5.37;82.87
62725;BME280;49026;52.600;4.694;2023-02-12T00:04:10;103867.47;;;5.34;82.54
62725;BME280;49026;52.600;4.694;2023-02-12T00:06:37;103865.63;;;5.30;82.71
62725;BME280;49026;52.600;4.694;2023-02-12T00:09:05;103859.44;;;5.27;82.47
62725;BME280;49026;52.600;4.694;2023-02-12T00:11:36;103869.72;;;5.22;82.70
62725;BME280;49026;52.600;4.694;2023-02-12T00:14:05;103868.78;;;5.20;82.72
62725;BME280;49026;52.600;4.694;2023-02-12T00:16:31;103869.66;;;5.20;82.59
62725;BME280;49026;52.600;4.694;2023-02-12T00:18:57;103868.88;;;5.23;82.69
62725;BME280;49026;52.600;4.694;2023-02-12T00:21:23;103878.50;;;5.26;82.64
62725;BME280;49026;52.600;4.694;2023-02-12T00:23:49;103877.72;;;5.28;82.43
62725;BME280;49026;52.600;4.694;2023-02-12T00:26:19;103875.91;;;5.26;82.38
62725;BME280;49026;52.600;4.694;2023-02-12T00:28:50;103872.41;;;5.25;82.42
62725;BME280;49026;52.600;4.694;2023-02-12T00:31:18;103868.88;;;5.23;82.85
62725;BME280;49026;52.600;4.694;2023-02-12T00:33:43;103868.69;;;5.17;82.95
62725;BME280;49026;52.600;4.694;2023-02-12T00:36:13;103878.25;;;5.16;82.72
62725;BME280;49026;52.600;4.694;2023-02-12T00:38:41;103881.56;;;5.12;82.33
62725;BME280;49026;52.600;4.694;2023-02-12T00:41:10;103879.72;;;5.08;82.67
62725;BME280;49026;52.600;4.694;2023-02-12T00:43:35;103875.22;;;5.04;82.82
62725;BME280;49026;52.600;4.694;2023-02-12T00:46:01;103870.78;;;5.00;82.87
62725;BME280;49026;52.600;4.694;2023-02-12T00:48:28;103873.28;;;4.97;82.79
62725;BME280;49026;52.600;4.694;2023-02-12T00:50:54;103863.59;;;4.93;82.70
62725;BME280;49026;52.600;4.694;2023-02-12T00:53:21;103861.81;;;4.92;82.62
62725;BME280;49026;52.600;4.694;2023-02-12T00:55:46;103858.25;;;4.88;82.47
62725;BME280;49026;52.600;4.694;2023-02-12T00:58:12;103859.88;;;4.85;81.82
62725;BME280;49026;52.600;4.694;2023-02-12T01:00:37;103860.44;;;4.76;82.01
62725;BME280;49026;52.600;4.694;2023-02-12T01:03:03;103854.94;;;4.67;81.92
62725;BME280;49026;52.600;4.694;2023-02-12T01:05:29;103854.69;;;4.59;81.85
62725;BME280;49026;52.600;4.694;2023-02-12T01:07:55;103856.13;;;4.51;81.81
62725;BME280;49026;52.600;4.694;2023-02-12T01:10:23;103858.44;;;4.41;81.63
62725;BME280;49026;52.600;4.694;2023-02-12T01:12:48;103861.66;;;4.34;81.47
62725;BME280;49026;52.600;4.694;2023-02-12T01:15:15;103864.88;;;4.27;81.66
62725;BME280;49026;52.600;4.694;2023-02-12T01:17:40;103857.72;;;4.20;81.35
62725;BME280;49026;52.600;4.694;2023-02-12T01:20:07;103859.22;;;4.13;81.61
62725;BME280;49026;52.600;4.694;2023-02-12T01:22:33;103865.03;;;4.06;81.54
62725;BME280;49026;52.600;4.694;2023-02-12T01:25:02;103867.34;;;3.98;81.62
62725;BME280;49026;52.600;4.694;2023-02-12T01:27:27;103875.78;;;3.91;81.15
62725;BME280;49026;52.600;4.694;2023-02-12T01:29:55;103870.34;;;3.85;81.12
62725;BME280;49026;52.600;4.694;2023-02-12T01:32:20;103867.56;;;3.80;81.44
62725;BME280;49026;52.600;4.694;2023-02-12T01:34:45;103870.91;;;3.76;80.74
62725;BME280;49026;52.600;4.694;2023-02-12T01:37:13;103870.78;;;3.73;81.28
62725;BME280;49026;52.600;4.694;2023-02-12T01:39:38;103866.22;;;3.67;80.92
62725;BME280;49026;52.600;4.694;2023-02-12T01:42:04;103865.09;;;3.61;81.23
62725;BME280;49026;52.600;4.694;2023-02-12T01:44:33;103866.66;;;3.56;81.17
62725;BME280;49026;52.600;4.694;2023-02-12T01:47:04;103866.56;;;3.52;80.89
62725;BME280;49026;52.600;4.694;2023-02-12T01:49:59;103867.31;;;3.50;81.21
62725;BME280;49026;52.600;4.694;2023-02-12T01:52:28;103861.06;;;3.45;81.12
62725;BME280;49026;52.600;4.694;2023-02-12T01:54:59;103861.72;;;3.39;81.23
62725;BME280;49026;52.600;4.694;2023-02-12T01:57:34;103872.00;;;3.36;80.83
62725;BME280;49026;52.600;4.694;2023-02-12T02:00:03;103860.59;;;3.32;81.12
62725;BME280;49026;52.600;4.694;2023-02-12T02:02:30;103862.28;;;3.32;80.99
62725;BME280;49026;52.600;4.694;2023-02-12T02:05:02;103857.09;;;3.32;81.35
62725;BME280;49026;52.600;4.694;2023-02-12T02:07:28;103860.53;;;3.31;81.43
62725;BME280;49026;52.600;4.694;2023-02-12T02:09:56;103864.84;;;3.30;80.71
62725;BME280;49026;52.600;4.694;2023-02-12T02:12:22;103859.56;;;3.29;80.51
62725;BME280;49026;52.600;4.694;2023-02-12T02:15:06;103863.66;;;3.22;80.27
62725;BME280;49026;52.600;4.694;2023-02-12T02:31:15;103855.25;;;3.07;80.88
62725;BME280;49026;52.600;4.694;2023-02-12T02:36:22;103853.88;;;2.94;80.21
62725;BME280;49026;52.600;4.694;2023-02-12T02:38:55;103857.94;;;2.87;80.48
62725;BME280;49026;52.600;4.694;2023-02-12T02:43:51;103852.50;;;2.81;80.73
62725;BME280;49026;52.600;4.694;2023-02-12T02:46:26;103857.59;;;2.78;81.15
62725;BME280;49026;52.600;4.694;2023-02-12T02:49:02;103853.06;;;2.74;81.06
62725;BME280;49026;52.600;4.694;2023-02-12T02:51:33;103850.38;;;2.71;81.01
62725;BME280;49026;52.600;4.694;2023-02-12T02:54:12;103850.38;;;2.71;81.39
62725;BME280;49026;52.600;4.694;2023-02-12T02:56:48;103844.34;;;2.72;80.92
62725;BME280;49026;52.600;4.694;2023-02-12T02:59:23;103850.38;;;2.71;80.84
62725;BME280;49026;52.600;4.694;2023-02-12T03:01:55;103844.16;;;2.67;80.72
62725;BME280;49026;52.600;4.694;2023-02-12T03:04:34;103851.00;;;2.65;80.94
62725;BME280;49026;52.600;4.694;2023-02-12T03:07:19;103851.91;;;2.66;81.56
62725;BME280;49026;52.600;4.694;2023-02-12T03:09:49;103846.75;;;2.67;81.69
62725;BME280;49026;52.600;4.694;2023-02-12T03:12:20;103850.47;;;2.74;81.25
62725;BME280;49026;52.600;4.694;2023-02-12T03:14:53;103849.91;;;2.81;81.71
62725;BME280;49026;52.600;4.694;2023-02-12T03:17:40;103838.13;;;2.89;81.90
62725;BME280;49026;52.600;4.694;2023-02-12T03:20:13;103840.94;;;2.95;81.56
62725;BME280;49026;52.600;4.694;2023-02-12T03:22:49;103842.06;;;3.02;81.81
62725;BME280;49026;52.600;4.694;2023-02-12T03:25:22;103840.78;;;3.13;81.70
62725;BME280;49026;52.600;4.694;2023-02-12T03:28:03;103846.38;;;3.23;81.49
62725;BME280;49026;52.600;4.694;2023-02-12T03:34:17;103842.16;;;3.26;82.12
62725;BME280;49026;52.600;4.694;2023-02-12T03:38:55;103844.66;;;3.46;82.92
62725;BME280;49026;52.600;4.694;2023-02-12T03:41:29;103843.19;;;3.54;82.61
62725;BME280;49026;52.600;4.694;2023-02-12T03:49:22;103838.78;;;3.76;83.27
62725;BME280;49026;52.600;4.694;2023-02-12T03:51:50;103841.63;;;3.82;83.32
62725;BME280;49026;52.600;4.694;2023-02-12T03:54:17;103846.13;;;3.86;83.99
62725;BME280;49026;52.600;4.694;2023-02-12T03:57:00;103842.03;;;3.94;84.20
62725;BME280;49026;52.600;4.694;2023-02-12T03:59:30;103840.53;;;3.99;83.78
62725;BME280;49026;52.600;4.694;2023-02-12T04:01:57;103849.31;;;4.03;83.87
62725;BME280;49026;52.600;4.694;2023-02-12T04:04:24;103851.13;;;4.05;83.96
62725;BME280;49026;52.600;4.694;2023-02-12T04:06:50;103856.56;;;4.12;84.49
62725;BME280;49026;52.600;4.694;2023-02-12T04:09:17;103859.31;;;4.16;84.47
62725;BME280;49026;52.600;4.694;2023-02-12T04:11:57;103854.31;;;4.22;84.38
62725;BME280;49026;52.600;4.694;2023-02-12T04:14:49;103858.91;;;4.30;84.67
62725;BME280;49026;52.600;4.694;2023-02-12T04:17:31;103862.50;;;4.33;84.72
62725;BME280;49026;52.600;4.694;2023-02-12T04:20:26;103864.41;;;4.39;84.82
62725;BME280;49026;52.600;4.694;2023-02-12T04:23:17;103874.19;;;4.44;84.93
62725;BME280;49026;52.600;4.694;2023-02-12T04:31:13;103880.63;;;4.56;84.78
62725;BME280;49026;52.600;4.694;2023-02-12T04:34:14;103881.41;;;4.53;84.81
62725;BME280;49026;52.600;4.694;2023-02-12T04:36:44;103881.41;;;4.53;84.99
62725;BME280;49026;52.600;4.694;2023-02-12T04:39:16;103888.59;;;4.60;85.18
62725;BME280;49026;52.600;4.694;2023-02-12T04:41:43;103888.84;;;4.68;85.19
62725;BME280;49026;52.600;4.694;2023-02-12T04:44:22;103883.00;;;4.75;85.27
62725;BME280;49026;52.600;4.694;2023-02-12T04:46:48;103891.84;;;4.80;85.15
62725;BME280;49026;52.600;4.694;2023-02-12T04:49:16;103888.59;;;4.86;85.11
62725;BME280;49026;52.600;4.694;2023-02-12T04:51:42;103884.34;;;4.90;85.18
62725;BME280;49026;52.600;4.694;2023-02-12T04:54:07;103894.94;;;4.96;85.04
62725;BME280;49026;52.600;4.694;2023-02-12T04:56:32;103887.28;;;5.00;85.40
62725;BME280;49026;52.600;4.694;2023-02-12T04:58:58;103892.59;;;5.04;85.42
62725;BME280;49026;52.600;4.694;2023-02-12T05:01:23;103889.25;;;5.08;85.66
62725;BME280;49026;52.600;4.694;2023-02-12T05:03:51;103887.59;;;5.10;85.36
62725;BME280;49026;52.600;4.694;2023-02-12T05:06:17;103890.31;;;5.13;85.84
62725;BME280;49026;52.600;4.694;2023-02-12T05:08:43;103890.38;;;5.16;85.75
62725;BME280;49026;52.600;4.694;2023-02-12T05:11:09;103886.16;;;5.19;85.56
62725;BME280;49026;52.600;4.694;2023-02-12T05:13:37;103892.31;;;5.22;85.61
62725;BME280;49026;52.600;4.694;2023-02-12T05:16:09;103890.69;;;5.25;85.76
62725;BME280;49026;52.600;4.694;2023-02-12T05:18:34;103891.66;;;5.29;85.68
62725;BME280;49026;52.600;4.694;2023-02-12T05:21:03;103893.50;;;5.33;85.68
62725;BME280;49026;52.600;4.694;2023-02-12T05:23:30;103893.59;;;5.36;85.62
62725;BME280;49026;52.600;4.694;2023-02-12T05:25:59;103894.44;;;5.35;85.02
62725;BME280;49026;52.600;4.694;2023-02-12T05:28:25;103898.84;;;5.37;85.41
62725;BME280;49026;52.600;4.694;2023-02-12T05:30:54;103883.31;;;5.41;85.68
62725;BME280;49026;52.600;4.694;2023-02-12T05:33:19;103887.81;;;5.45;85.57
62725;BME280;49026;52.600;4.694;2023-02-12T05:35:44;103886.16;;;5.48;85.51
62725;BME280;49026;52.600;4.694;2023-02-12T05:38:12;103888.00;;;5.52;85.64
62725;BME280;49026;52.600;4.694;2023-02-12T05:40:37;103886.41;;;5.57;85.55
62725;BME280;49026;52.600;4.694;2023-02-12T05:43:05;103883.91;;;5.61;85.29
62725;BME280;49026;52.600;4.694;2023-02-12T05:45:31;103877.91;;;5.63;85.71
62725;BME280;49026;52.600;4.694;2023-02-12T05:47:57;103884.00;;;5.64;85.58
62725;BME280;49026;52.600;4.694;2023-02-12T05:50:22;103884.88;;;5.64;85.36
62725;BME280;49026;52.600;4.694;2023-02-12T05:52:47;103880.56;;;5.65;85.39
62725;BME280;49026;52.600;4.694;2023-02-12T05:55:13;103886.66;;;5.65;85.68
62725;BME280;49026;52.600;4.694;2023-02-12T05:57:38;103889.31;;;5.67;85.77
62725;BME280;49026;52.600;4.694;2023-02-12T06:00:09;103892.00;;;5.70;85.65
62725;BME280;49026;52.600;4.694;2023-02-12T06:02:37;103890.31;;;5.72;85.61
62725;BME280;49026;52.600;4.694;2023-02-12T06:05:02;103890.41;;;5.75;85.96
62725;BME280;49026;52.600;4.694;2023-02-12T06:07:28;103894.78;;;5.76;85.27
62725;BME280;49026;52.600;4.694;2023-02-12T06:09:55;103892.22;;;5.78;85.79
62725;BME280;49026;52.600;4.694;2023-02-12T06:12:20;103891.38;;;5.79;85.71
62725;BME280;49026;52.600;4.694;2023-02-12T06:14:46;103890.53;;;5.80;85.73
62725;BME280;49026;52.600;4.694;2023-02-12T06:17:11;103889.66;;;5.79;85.74
62725;BME280;49026;52.600;4.694;2023-02-12T06:19:37;103894.03;;;5.80;85.50
62725;BME280;49026;52.600;4.694;2023-02-12T06:22:02;103896.66;;;5.80;85.87
62725;BME280;49026;52.600;4.694;2023-02-12T06:24:30;103891.47;;;5.82;86.16
62725;BME280;49026;52.600;4.694;2023-02-12T06:26:55;103888.91;;;5.83;85.63
62725;BME280;49026;52.600;4.694;2023-02-12T06:29:21;103895.00;;;5.84;85.83
62725;BME280;49026;52.600;4.694;2023-02-12T06:31:47;103894.19;;;5.86;85.58
62725;BME280;49026;52.600;4.694;2023-02-12T06:34:13;103891.63;;;5.88;85.33
62725;BME280;49026;52.600;4.694;2023-02-12T06:36:44;103893.38;;;5.87;85.63
62725;BME280;49026;52.600;4.694;2023-02-12T06:39:12;103887.28;;;5.87;85.90
62725;BME280;49026;52.600;4.694;2023-02-12T06:41:40;103896.91;;;5.89;85.81
62725;BME280;49026;52.600;4.694;2023-02-12T06:44:06;103896.06;;;5.90;85.72
62725;BME280;49026;52.600;4.694;2023-02-12T06:46:32;103897.84;;;5.91;85.31
62725;BME280;49026;52.600;4.694;2023-02-12T06:49:01;103891.72;;;5.91;85.59
62725;BME280;49026;52.600;4.694;2023-02-12T06:51:29;103896.03;;;5.89;85.53
62725;BME280;49026;52.600;4.694;2023-02-12T06:53:58;103899.50;;;5.89;85.46
62725;BME280;49026;52.600;4.694;2023-02-12T06:56:24;103903.03;;;5.90;85.35
62725;BME280;49026;52.600;4.694;2023-02-12T06:58:58;103902.22;;;5.92;85.60
62725;BME280;49026;52.600;4.694;2023-02-12T07:01:26;103905.75;;;5.94;85.93
62725;BME280;49026;52.600;4.694;2023-02-12T07:04:04;103903.22;;;5.96;85.44
62725;BME280;49026;52.600;4.694;2023-02-12T07:06:30;103908.47;;;5.98;85.35
62725;BME280;49026;52.600;4.694;2023-02-12T07:08:57;103908.56;;;6.01;86.00
62725;BME280;49026;52.600;4.694;2023-02-12T07:11:29;103907.84;;;6.05;85.95
62725;BME280;49026;52.600;4.694;2023-02-12T07:13:55;103911.38;;;6.07;85.83
62725;BME280;49026;52.600;4.694;2023-02-12T07:16:20;103913.97;;;6.07;86.12
62725;BME280;49026;52.600;4.694;2023-02-12T07:18:46;103909.72;;;6.10;85.59
62725;BME280;49026;52.600;4.694;2023-02-12T07:21:12;103903.69;;;6.13;85.57
62725;BME280;49026;52.600;4.694;2023-02-12T07:23:40;103914.22;;;6.16;85.22
62725;BME280;49026;52.600;4.694;2023-02-12T07:26:11;103909.06;;;6.19;85.42
62725;BME280;49026;52.600;4.694;2023-02-12T07:28:37;103915.22;;;6.21;86.02
62725;BME280;49026;52.600;4.694;2023-02-12T07:33:38;103921.44;;;6.26;85.50
62725;BME280;49026;52.600;4.694;2023-02-12T07:36:07;103923.28;;;6.29;85.70
62725;BME280;49026;52.600;4.694;2023-02-12T07:38:32;103925.09;;;6.32;85.60
62725;BME280;49026;52.600;4.694;2023-02-12T07:41:13;103930.38;;;6.35;85.61
62725;BME280;49026;52.600;4.694;2023-02-12T07:43:40;103934.81;;;6.37;85.45
62725;BME280;49026;52.600;4.694;2023-02-12T07:46:07;103941.00;;;6.41;85.68
62725;BME280;49026;52.600;4.694;2023-02-12T07:48:32;103938.47;;;6.44;86.37
62725;BME280;49026;52.600;4.694;2023-02-12T07:51:02;103935.94;;;6.47;86.22
62725;BME280;49026;52.600;4.694;2023-02-12T07:53:28;103941.31;;;6.53;85.81
62725;BME280;49026;52.600;4.694;2023-02-12T07:55:55;103939.66;;;6.55;85.48
62725;BME280;49026;52.600;4.694;2023-02-12T07:58:28;103948.50;;;6.60;85.93
62725;BME280;49026;52.600;4.694;2023-02-12T08:00:53;103951.25;;;6.66;85.51
62725;BME280;49026;52.600;4.694;2023-02-12T08:03:18;103953.94;;;6.70;85.99
62725;BME280;49026;52.600;4.694;2023-02-12T08:05:51;103954.06;;;6.74;85.86
62725;BME280;49026;52.600;4.694;2023-02-12T08:08:16;103961.16;;;6.80;85.72
62725;BME280;49026;52.600;4.694;2023-02-12T08:10:41;103964.81;;;6.85;85.60
62725;BME280;49026;52.600;4.694;2023-02-12T08:13:09;103965.81;;;6.90;85.96
62725;BME280;49026;52.600;4.694;2023-02-12T08:15:34;103968.47;;;6.93;86.60
62725;BME280;49026;52.600;4.694;2023-02-12T08:17:59;103972.13;;;6.98;85.79
62725;BME280;49026;52.600;4.694;2023-02-12T08:20:25;103977.50;;;7.04;86.71
62725;BME280;49026;52.600;4.694;2023-02-12T08:22:51;103981.00;;;7.07;86.29
62725;BME280;49026;52.600;4.694;2023-02-12T08:25:18;103980.31;;;7.12;86.14
62725;BME280;49026;52.600;4.694;2023-02-12T08:27:44;103983.91;;;7.17;86.33
62725;BME280;49026;52.600;4.694;2023-02-12T08:30:09;103984.88;;;7.21;85.69
62725;BME280;49026;52.600;4.694;2023-02-12T08:32:35;103981.50;;;7.25;86.05
62725;BME280;49026;52.600;4.694;2023-02-12T08:35:00;103978.88;;;7.27;85.58
62725;BME280;49026;52.600;4.694;2023-02-12T08:37:25;103982.38;;;7.26;85.77
62725;BME280;49026;52.600;4.694;2023-02-12T08:39:50;103987.69;;;7.29;86.21
62725;BME280;49026;52.600;4.694;2023-02-12T08:42:18;103984.34;;;7.36;86.42
62725;BME280;49026;52.600;4.694;2023-02-12T08:44:43;103987.09;;;7.40;86.50
62725;BME280;49026;52.600;4.694;2023-02-12T08:47:09;103980.13;;;7.41;86.16
62725;BME280;49026;52.600;4.694;2023-02-12T08:49:36;103989.81;;;7.45;86.23
62725;BME280;49026;52.600;4.694;2023-02-12T08:52:02;103989.84;;;7.48;86.10
62725;BME280;49026;52.600;4.694;2023-02-12T08:54:29;103988.22;;;7.53;86.75
62725;BME280;49026;52.600;4.694;2023-02-12T08:56:56;103988.41;;;7.61;86.25
62725;BME280;49026;52.600;4.694;2023-02-12T08:59:25;103992.03;;;7.66;85.98
62725;BME280;49026;52.600;4.694;2023-02-12T09:01:51;103990.34;;;7.70;86.08
62725;BME280;49026;52.600;4.694;2023-02-12T09:04:19;103999.19;;;7.75;86.30
62725;BME280;49026;52.600;4.694;2023-02-12T09:06:46;104008.94;;;7.81;86.22
62725;BME280;49026;52.600;4.694;2023-02-12T09:09:12;104003.78;;;7.84;86.10
62725;BME280;49026;52.600;4.694;2023-02-12T09:11:38;104009.00;;;7.84;85.94
62725;BME280;49026;52.600;4.694;2023-02-12T09:14:05;103996.81;;;7.86;86.63
62725;BME280;49026;52.600;4.694;2023-02-12T09:16:35;104000.50;;;7.94;86.57
62725;BME280;49026;52.600;4.694;2023-02-12T09:19:01;104003.25;;;8.02;86.31
62725;BME280;49026;52.600;4.694;2023-02-12T09:21:26;103999.00;;;8.05;86.62
62725;BME280;49026;52.600;4.694;2023-02-12T09:23:52;103999.00;;;8.05;85.96
62725;BME280;49026;52.600;4.694;2023-02-12T09:26:20;103998.09;;;8.05;86.61
62725;BME280;49026;52.600;4.694;2023-02-12T09:28:49;103999.81;;;8.03;86.23
62725;BME280;49026;52.600;4.694;2023-02-12T09:31:20;104009.47;;;8.05;85.87
62725;BME280;49026;52.600;4.694;2023-02-12T09:33:47;104008.66;;;8.09;86.64
62725;BME280;49026;52.600;4.694;2023-02-12T09:36:16;104006.19;;;8.15;85.96
62725;BME280;49026;52.600;4.694;2023-02-12T09:38:44;104006.28;;;8.22;86.61
62725;BME280;49026;52.600;4.694;2023-02-12T09:41:24;104007.25;;;8.25;86.59
62725;BME280;49026;52.600;4.694;2023-02-12T09:46:32;104008.31;;;8.35;86.05
62725;BME280;49026;52.600;4.694;2023-02-12T09:51:41;104008.66;;;8.50;86.37
62725;BME280;49026;52.600;4.694;2023-02-12T09:54:16;104002.66;;;8.56;86.23
62725;BME280;49026;52.600;4.694;2023-02-12T09:56:47;104003.59;;;8.60;86.21
62725;BME280;49026;52.600;4.694;2023-02-12T09:59:27;104005.28;;;8.58;85.79
62725;BME280;49026;52.600;4.694;2023-02-12T10:01:56;104001.75;;;8.54;85.76
62725;BME280;49026;52.600;4.694;2023-02-12T10:04:22;104013.00;;;8.50;85.92
62725;BME280;49026;52.600;4.694;2023-02-12T10:07:20;104012.00;;;8.43;85.85
62725;BME280;49026;52.600;4.694;2023-02-12T10:12:50;104013.84;;;8.47;85.85
62725;BME280;49026;52.600;4.694;2023-02-12T10:15:30;104009.50;;;8.49;85.28
62725;BME280;49026;52.600;4.694;2023-02-12T10:20:57;104017.53;;;8.57;85.39
62725;BME280;49026;52.600;4.694;2023-02-12T10:23:45;104001.88;;;8.62;86.44
62725;BME280;49026;52.600;4.694;2023-02-12T10:26:28;104007.06;;;8.59;85.63
62725;BME280;49026;52.600;4.694;2023-02-12T10:28:59;104011.41;;;8.58;85.55
62725;BME280;49026;52.600;4.694;2023-02-12T10:31:31;104013.25;;;8.62;85.37
62725;BME280;49026;52.600;4.694;2023-02-12T10:33:58;104011.63;;;8.69;85.34
62725;BME280;49026;52.600;4.694;2023-02-12T10:41:38;104008.44;;;8.87;85.18
62725;BME280;49026;52.600;4.694;2023-02-12T10:44:05;104005.84;;;8.88;85.04
62725;BME280;49026;52.600;4.694;2023-02-12T10:46:32;104005.00;;;8.89;85.22
62725;BME280;49026;52.600;4.694;2023-02-12T10:48:58;103994.41;;;8.85;84.27
62725;BME280;49026;52.600;4.694;2023-02-12T10:54:33;104002.84;;;8.68;84.10
62725;BME280;49026;52.600;4.694;2023-02-12T10:57:07;104004.59;;;8.68;84.27
62725;BME280;49026;52.600;4.694;2023-02-12T10:59:36;104010.72;;;8.68;84.21
62725;BME280;49026;52.600;4.694;2023-02-12T11:02:01;104003.81;;;8.72;84.03
62725;BME280;49026;52.600;4.694;2023-02-12T11:04:31;104002.84;;;8.68;83.33
62725;BME280;49026;52.600;4.694;2023-02-12T11:07:01;104001.97;;;8.66;82.92
62725;BME280;49026;52.600;4.694;2023-02-12T11:09:35;103997.59;;;8.65;82.78
62725;BME280;49026;52.600;4.694;2023-02-12T11:12:01;104007.06;;;8.59;82.80
62725;BME280;49026;52.600;4.694;2023-02-12T11:14:27;104003.59;;;8.60;82.99
62725;BME280;49026;52.600;4.694;2023-02-12T11:16:54;104000.19;;;8.64;83.18
62725;BME280;49026;52.600;4.694;2023-02-12T11:19:30;103993.38;;;8.75;83.20
62725;BME280;49026;52.600;4.694;2023-02-12T11:22:10;103998.72;;;8.81;83.15
62725;BME280;49026;52.600;4.694;2023-02-12T11:24:45;103994.50;;;8.89;83.50
62725;BME280;49026;52.600;4.694;2023-02-12T11:29:42;103990.34;;;9.01;83.48
62725;BME280;49026;52.600;4.694;2023-02-12T11:32:15;103984.25;;;9.03;83.24
62725;BME280;49026;52.600;4.694;2023-02-12T11:34:41;103989.56;;;9.08;83.61
62725;BME280;49026;52.600;4.694;2023-02-12T11:37:17;103985.31;;;9.15;83.55
62725;BME280;49026;52.600;4.694;2023-02-12T11:39:48;103988.84;;;9.17;83.71
62725;BME280;49026;52.600;4.694;2023-02-12T11:42:16;103984.53;;;9.22;83.57
62725;BME280;49026;52.600;4.694;2023-02-12T11:44:56;103984.53;;;9.19;83.57
62725;BME280;49026;52.600;4.694;2023-02-12T11:47:24;103980.94;;;9.15;83.31
62725;BME280;49026;52.600;4.694;2023-02-12T11:50:14;103989.66;;;9.13;82.89
62725;BME280;49026;52.600;4.694;2023-02-12T11:52:42;103987.81;;;9.08;82.95
62725;BME280;49026;52.600;4.694;2023-02-12T11:55:22;103979.09;;;9.09;82.77
62725;BME280;49026;52.600;4.694;2023-02-12T11:57:50;103984.44;;;9.14;83.44
62725;BME280;49026;52.600;4.694;2023-02-12T12:00:31;103989.75;;;9.17;83.28
62725;BME280;49026;52.600;4.694;2023-02-12T12:03:04;103987.03;;;9.13;82.86
62725;BME280;49026;52.600;4.694;2023-02-12T12:05:43;103987.84;;;9.10;82.92
62725;BME280;49026;52.600;4.694;2023-02-12T12:08:17;103989.66;;;9.13;82.58
62725;BME280;49026;52.600;4.694;2023-02-12T12:11:09;103989.75;;;9.17;82.69
62725;BME280;49026;52.600;4.694;2023-02-12T12:13:42;103990.63;;;9.19;82.89
62725;BME280;49026;52.600;4.694;2023-02-12T12:16:23;103985.28;;;9.13;82.09
62725;BME280;49026;52.600;4.694;2023-02-12T12:19:19;103983.47;;;9.09;82.15
62725;BME280;49026;52.600;4.694;2023-02-12T12:22:53;103979.19;;;9.14;82.66
62725;BME280;49026;52.600;4.694;2023-02-12T12:25:07;103978.38;;;9.18;82.36
62725;BME280;49026;52.600;4.694;2023-02-12T12:27:42;103968.66;;;9.13;82.03
62725;BME280;49026;52.600;4.694;2023-02-12T12:36:50;103973.22;;;9.24;82.44
62725;BME280;49026;52.600;4.694;2023-02-12T12:47:55;103970.50;;;9.20;82.24
62725;BME280;49026;52.600;4.694;2023-02-12T12:59:32;103959.84;;;9.07;81.69
62725;BME280;49026;52.600;4.694;2023-02-12T13:05:22;103946.81;;;9.12;81.54
62725;BME280;49026;52.600;4.694;2023-02-12T13:10:47;103952.06;;;9.12;81.01
62725;BME280;49026;52.600;4.694;2023-02-12T13:13:40;103947.53;;;9.05;80.88
62725;BME280;49026;52.600;4.694;2023-02-12T13:21:35;103941.44;;;9.04;80.83
62725;BME280;49026;52.600;4.694;2023-02-12T13:24:10;103936.06;;;8.98;80.33
62725;BME280;49026;52.600;4.694;2023-02-12T13:26:50;103931.69;;;8.96;80.44
62725;BME280;49026;52.600;4.694;2023-02-12T13:29:25;103930.75;;;8.94;80.55
62725;BME280;49026;52.600;4.694;2023-02-12T13:32:00;103929.09;;;8.99;80.53
62725;BME280;49026;52.600;4.694;2023-02-12T13:34:28;103923.94;;;9.05;80.76
62725;BME280;49026;52.600;4.694;2023-02-12T13:36:59;103921.25;;;9.02;80.38
62725;BME280;49026;52.600;4.694;2023-02-12T13:39:37;103916.84;;;8.98;80.43
62725;BME280;49026;52.600;4.694;2023-02-12T13:42:08;103923.06;;;9.04;80.68
62725;BME280;49026;52.600;4.694;2023-02-12T13:44:56;103923.19;;;9.14;80.80
62725;BME280;49026;52.600;4.694;2023-02-12T13:47:31;103920.56;;;9.12;80.60
62725;BME280;49026;52.600;4.694;2023-02-12T13:50:19;103917.75;;;9.01;79.92
62725;BME280;49026;52.600;4.694;2023-02-12T13:59:00;103912.38;;;8.92;80.46
62725;BME280;49026;52.600;4.694;2023-02-12T14:01:41;103904.50;;;8.94;80.29
62725;BME280;49026;52.600;4.694;2023-02-12T14:06:52;103909.09;;;9.07;80.48
62725;BME280;49026;52.600;4.694;2023-02-12T14:09:21;103905.53;;;9.03;80.03
62725;BME280;49026;52.600;4.694;2023-02-12T14:11:51;103907.16;;;8.92;80.27
62725;BME280;49026;52.600;4.694;2023-02-12T14:14:26;103908.84;;;8.90;80.33
62725;BME280;49026;52.600;4.694;2023-02-12T14:16:52;103907.13;;;8.90;80.21
62725;BME280;49026;52.600;4.694;2023-02-12T14:19:37;103904.56;;;8.97;80.56
62725;BME280;49026;52.600;4.694;2023-02-12T14:24:49;103901.16;;;9.01;80.51
62725;BME280;49026;52.600;4.694;2023-02-12T14:35:32;103898.22;;;8.81;80.60
62725;BME280;49026;52.600;4.694;2023-02-12T14:40:51;103896.31;;;8.74;80.29
62725;BME280;49026;52.600;4.694;2023-02-12T14:45:55;103904.97;;;8.66;80.03
62725;BME280;49026;52.600;4.694;2023-02-12T14:48:40;103897.13;;;8.68;80.32
62725;BME280;49026;52.600;4.694;2023-02-12T14:51:32;103891.94;;;8.71;79.81
62725;BME280;49026;52.600;4.694;2023-02-12T14:54:01;103891.94;;;8.71;79.93
62725;BME280;49026;52.600;4.694;2023-02-12T14:56:32;103885.78;;;8.69;80.40
62725;BME280;49026;52.600;4.694;2023-02-12T14:59:02;103890.09;;;8.67;80.14
62725;BME280;49026;52.600;4.694;2023-02-12T15:01:32;103882.16;;;8.61;80.32
62725;BME280;49026;52.600;4.694;2023-02-12T15:04:10;103889.03;;;8.54;80.16
62725;BME280;49026;52.600;4.694;2023-02-12T15:06:42;103889.88;;;8.53;79.92
62725;BME280;49026;52.600;4.694;2023-02-12T15:09:20;103887.31;;;8.56;80.26
62725;BME280;49026;52.600;4.694;2023-02-12T15:12:19;103887.28;;;8.55;80.10
62725;BME280;49026;52.600;4.694;2023-02-12T15:14:57;103883.69;;;8.48;80.13
62725;BME280;49026;52.600;4.694;2023-02-12T15:17:28;103882.75;;;8.44;80.06
62725;BME280;49026;52.600;4.694;2023-02-12T15:20:06;103875.63;;;8.40;79.95